Bernard Harbour, Canada
Current Conditions -  °F | °C
As of 4:00 PM on Wednesday 22 Oct 2014 (Local Time) from CYCO Reporting Station
Overcast Overcast  
Wind Chill:   Ceiling: 12000
Heat Index: 18°   Visibility: 15mi
Dew Point: 12°   Wind: 16mph
Humidity: 79%   Direction: 110°ESE
Pressure: 30.13"   Gusts: 23mph
Location:  68.78°N, 114.78°W
Report Text: CYCO 222300Z 11014G20KT 15SM FEW018 OVC120 M08/M11 A3013 RMKSC2AC6 SLP205
Loading
Personal Weather Stations






























Interactive Weather Map
Tropical Storm Tracking
New forecast layout! Learn more

10-Day Weather Forecast

Advertisements
Track Severe Weather on mobile